sensor_id;sensor_type;location;lat;lon;timestamp;temperature;humidity
20370;DHT22;10344;47.592;9.600;2023-03-01T00:10:43;1.50;99.90
20370;DHT22;10344;47.592;9.600;2023-03-01T01:15:07;1.90;99.90
20370;DHT22;10344;47.592;9.600;2023-03-01T01:31:35;1.80;99.90
20370;DHT22;10344;47.592;9.600;2023-03-01T01:34:23;2.00;99.90
20370;DHT22;10344;47.592;9.600;2023-03-01T01:37:30;1.90;99.90
20370;DHT22;10344;47.592;9.600;2023-03-01T01:40:48;2.00;99.90
20370;DHT22;10344;47.592;9.600;2023-03-01T01:54:27;1.80;99.90
20370;DHT22;10344;47.592;9.600;2023-03-01T02:08:02;2.00;99.90
20370;DHT22;10344;47.592;9.600;2023-03-01T02:48:09;2.00;99.90
20370;DHT22;10344;47.592;9.600;2023-03-01T03:05:15;2.00;99.90
20370;DHT22;10344;47.592;9.600;2023-03-01T03:22:05;2.00;99.90
20370;DHT22;10344;47.592;9.600;2023-03-01T03:24:56;2.10;99.90
20370;DHT22;10344;47.592;9.600;2023-03-01T03:41:42;2.00;99.90
20370;DHT22;10344;47.592;9.600;2023-03-01T03:48:20;2.10;99.90
20370;DHT22;10344;47.592;9.600;2023-03-01T03:54:49;2.00;99.90
20370;DHT22;10344;47.592;9.600;2023-03-01T04:08:49;2.10;99.90
20370;DHT22;10344;47.592;9.600;2023-03-01T04:22:43;2.00;99.90
20370;DHT22;10344;47.592;9.600;2023-03-01T04:43:34;2.00;99.90
20370;DHT22;10344;47.592;9.600;2023-03-01T04:46:29;2.00;99.90
20370;DHT22;10344;47.592;9.600;2023-03-01T04:50:08;2.00;99.90
20370;DHT22;10344;47.592;9.600;2023-03-01T05:17:02;2.20;99.90
20370;DHT22;10344;47.592;9.600;2023-03-01T05:41:14;2.10;99.90
20370;DHT22;10344;47.592;9.600;2023-03-01T05:48:30;2.00;99.90
20370;DHT22;10344;47.592;9.600;2023-03-01T06:01:45;2.10;99.90
20370;DHT22;10344;47.592;9.600;2023-03-01T06:18:28;2.00;99.90
20370;DHT22;10344;47.592;9.600;2023-03-01T06:25:06;2.00;99.90
20370;DHT22;10344;47.592;9.600;2023-03-01T06:30:59;2.10;99.90
20370;DHT22;10344;47.592;9.600;2023-03-01T06:40:18;2.10;99.90
20370;DHT22;10344;47.592;9.600;2023-03-01T06:46:39;2.10;99.90
20370;DHT22;10344;47.592;9.600;2023-03-01T06:52:47;2.10;99.90
20370;DHT22;10344;47.592;9.600;2023-03-01T06:55:35;2.20;99.90
20370;DHT22;10344;47.592;9.600;2023-03-01T07:01:59;2.10;99.90
20370;DHT22;10344;47.592;9.600;2023-03-01T07:04:39;2.20;99.90
20370;DHT22;10344;47.592;9.600;2023-03-01T07:07:24;2.10;99.90
20370;DHT22;10344;47.592;9.600;2023-03-01T07:10:43;2.10;99.90
20370;DHT22;10344;47.592;9.600;2023-03-01T07:17:20;2.10;99.90
20370;DHT22;10344;47.592;9.600;2023-03-01T07:31:12;2.20;99.90
20370;DHT22;10344;47.592;9.600;2023-03-01T07:37:39;2.20;99.90
20370;DHT22;10344;47.592;9.600;2023-03-01T07:40:52;2.20;99.90
20370;DHT22;10344;47.592;9.600;2023-03-01T07:43:18;2.20;99.90
20370;DHT22;10344;47.592;9.600;2023-03-01T07:49:35;2.30;99.90
20370;DHT22;10344;47.592;9.600;2023-03-01T07:55:20;2.40;99.90
20370;DHT22;10344;47.592;9.600;2023-03-01T07:57:45;2.30;99.90
20370;DHT22;10344;47.592;9.600;2023-03-01T08:00:17;2.30;99.90
20370;DHT22;10344;47.592;9.600;2023-03-01T08:02:43;2.40;99.90
20370;DHT22;10344;47.592;9.600;2023-03-01T08:05:10;2.50;99.90
20370;DHT22;10344;47.592;9.600;2023-03-01T08:07:41;2.50;99.90
20370;DHT22;10344;47.592;9.600;2023-03-01T08:10:07;2.40;99.90
20370;DHT22;10344;47.592;9.600;2023-03-01T08:12:35;2.50;99.90
20370;DHT22;10344;47.592;9.600;2023-03-01T08:15:04;2.50;99.90
20370;DHT22;10344;47.592;9.600;2023-03-01T08:17:30;2.50;99.90
20370;DHT22;10344;47.592;9.600;2023-03-01T08:19:55;2.50;99.90
20370;DHT22;10344;47.592;9.600;2023-03-01T08:22:23;2.50;99.90
20370;DHT22;10344;47.592;9.600;2023-03-01T08:24:52;2.50;99.90
20370;DHT22;10344;47.592;9.600;2023-03-01T08:27:17;2.60;99.90
20370;DHT22;10344;47.592;9.600;2023-03-01T08:29:43;2.60;99.90
20370;DHT22;10344;47.592;9.600;2023-03-01T08:32:09;2.60;99.90
20370;DHT22;10344;47.592;9.600;2023-03-01T08:34:34;2.60;99.90
20370;DHT22;10344;47.592;9.600;2023-03-01T08:37:06;2.60;99.90
20370;DHT22;10344;47.592;9.600;2023-03-01T08:39:32;2.60;99.90
20370;DHT22;10344;47.592;9.600;2023-03-01T08:42:00;2.70;99.90
20370;DHT22;10344;47.592;9.600;2023-03-01T08:44:29;2.70;99.90
20370;DHT22;10344;47.592;9.600;2023-03-01T08:46:54;2.80;99.90
20370;DHT22;10344;47.592;9.600;2023-03-01T08:49:21;2.70;99.90
20370;DHT22;10344;47.592;9.600;2023-03-01T08:51:47;2.80;99.90
20370;DHT22;10344;47.592;9.600;2023-03-01T08:54:22;2.80;99.90
20370;DHT22;10344;47.592;9.600;2023-03-01T08:56:48;2.80;99.90
20370;DHT22;10344;47.592;9.600;2023-03-01T08:59:15;2.90;99.90
20370;DHT22;10344;47.592;9.600;2023-03-01T09:01:50;2.90;99.90
20370;DHT22;10344;47.592;9.600;2023-03-01T09:04:16;2.90;99.90
20370;DHT22;10344;47.592;9.600;2023-03-01T09:06:42;2.90;99.90
20370;DHT22;10344;47.592;9.600;2023-03-01T09:09:14;2.90;99.90
20370;DHT22;10344;47.592;9.600;2023-03-01T09:11:41;3.00;99.90
20370;DHT22;10344;47.592;9.600;2023-03-01T09:14:07;2.90;99.90
20370;DHT22;10344;47.592;9.600;2023-03-01T09:16:32;3.00;99.90
20370;DHT22;10344;47.592;9.600;2023-03-01T09:19:02;3.00;99.90
20370;DHT22;10344;47.592;9.600;2023-03-01T09:21:30;2.90;99.90
20370;DHT22;10344;47.592;9.600;2023-03-01T09:23:57;3.00;99.90
20370;DHT22;10344;47.592;9.600;2023-03-01T09:26:25;3.00;99.90
20370;DHT22;10344;47.592;9.600;2023-03-01T09:28:55;3.00;99.90
20370;DHT22;10344;47.592;9.600;2023-03-01T09:31:25;3.10;99.90
20370;DHT22;10344;47.592;9.600;2023-03-01T09:33:52;3.10;99.90
20370;DHT22;10344;47.592;9.600;2023-03-01T09:36:22;3.10;99.90
20370;DHT22;10344;47.592;9.600;2023-03-01T09:38:51;3.10;99.90
20370;DHT22;10344;47.592;9.600;2023-03-01T09:44:08;3.30;99.90
20370;DHT22;10344;47.592;9.600;2023-03-01T09:46:52;3.30;99.90
20370;DHT22;10344;47.592;9.600;2023-03-01T09:49:32;3.40;99.90
20370;DHT22;10344;47.592;9.600;2023-03-01T09:52:34;3.40;99.90
20370;DHT22;10344;47.592;9.600;2023-03-01T09:55:14;3.50;99.90
20370;DHT22;10344;47.592;9.600;2023-03-01T10:11:12;3.60;99.90
20370;DHT22;10344;47.592;9.600;2023-03-01T10:16:51;3.50;99.90
20370;DHT22;10344;47.592;9.600;2023-03-01T10:19:46;3.50;99.90
20370;DHT22;10344;47.592;9.600;2023-03-01T10:22:21;3.70;99.90
20370;DHT22;10344;47.592;9.600;2023-03-01T10:24:56;3.80;99.90
20370;DHT22;10344;47.592;9.600;2023-03-01T10:28:05;3.90;99.90
20370;DHT22;10344;47.592;9.600;2023-03-01T10:30:39;3.90;99.90
20370;DHT22;10344;47.592;9.600;2023-03-01T10:33:20;4.00;99.90
20370;DHT22;10344;47.592;9.600;2023-03-01T10:35:46;4.00;99.90
20370;DHT22;10344;47.592;9.600;2023-03-01T10:38:19;4.00;99.90
20370;DHT22;10344;47.592;9.600;2023-03-01T10:40:58;4.10;99.90
20370;DHT22;10344;47.592;9.600;2023-03-01T10:43:51;4.20;99.90
20370;DHT22;10344;47.592;9.600;2023-03-01T10:46:38;4.20;99.90
20370;DHT22;10344;47.592;9.600;2023-03-01T10:51:46;4.20;99.90
20370;DHT22;10344;47.592;9.600;2023-03-01T10:54:32;4.10;99.90
20370;DHT22;10344;47.592;9.600;2023-03-01T10:57:10;4.30;99.90
20370;DHT22;10344;47.592;9.600;2023-03-01T11:00:14;4.20;99.90
20370;DHT22;10344;47.592;9.600;2023-03-01T11:03:01;4.30;99.90
20370;DHT22;10344;47.592;9.600;2023-03-01T11:05:28;4.30;99.90
20370;DHT22;10344;47.592;9.600;2023-03-01T11:08:00;4.30;99.90
20370;DHT22;10344;47.592;9.600;2023-03-01T11:10:34;4.30;99.90
20370;DHT22;10344;47.592;9.600;2023-03-01T11:13:08;4.40;99.90
20370;DHT22;10344;47.592;9.600;2023-03-01T11:15:40;4.50;99.90
20370;DHT22;10344;47.592;9.600;2023-03-01T11:18:21;4.50;99.90
20370;DHT22;10344;47.592;9.600;2023-03-01T11:20:55;4.50;99.90
20370;DHT22;10344;47.592;9.600;2023-03-01T11:23:24;4.60;99.90
20370;DHT22;10344;47.592;9.600;2023-03-01T11:25:55;4.60;99.90
20370;DHT22;10344;47.592;9.600;2023-03-01T11:28:22;4.40;99.90
20370;DHT22;10344;47.592;9.600;2023-03-01T11:30:51;4.40;99.90
20370;DHT22;10344;47.592;9.600;2023-03-01T11:33:44;4.30;99.90
20370;DHT22;10344;47.592;9.600;2023-03-01T11:37:02;4.30;99.90
20370;DHT22;10344;47.592;9.600;2023-03-01T11:39:39;4.40;99.90
20370;DHT22;10344;47.592;9.600;2023-03-01T11:42:18;4.30;99.90
20370;DHT22;10344;47.592;9.600;2023-03-01T11:44:54;4.30;99.90
20370;DHT22;10344;47.592;9.600;2023-03-01T11:50:19;4.60;99.90
20370;DHT22;10344;47.592;9.600;2023-03-01T12:07:07;4.60;99.90
20370;DHT22;10344;47.592;9.600;2023-03-01T12:10:00;4.70;99.90
20370;DHT22;10344;47.592;9.600;2023-03-01T12:13:03;4.70;99.90
20370;DHT22;10344;47.592;9.600;2023-03-01T12:18:13;4.60;99.90
20370;DHT22;10344;47.592;9.600;2023-03-01T12:26:11;4.60;99.90
20370;DHT22;10344;47.592;9.600;2023-03-01T12:43:06;4.60;99.90
20370;DHT22;10344;47.592;9.600;2023-03-01T12:50:53;4.70;99.90
20370;DHT22;10344;47.592;9.600;2023-03-01T12:53:32;4.70;99.90
20370;DHT22;10344;47.592;9.600;2023-03-01T12:56:08;4.80;99.90
20370;DHT22;10344;47.592;9.600;2023-03-01T12:58:57;4.90;99.90
20370;DHT22;10344;47.592;9.600;2023-03-01T13:26:09;4.80;99.90
20370;DHT22;10344;47.592;9.600;2023-03-01T13:28:51;4.80;99.90
20370;DHT22;10344;47.592;9.600;2023-03-01T13:33:47;4.90;99.90
20370;DHT22;10344;47.592;9.600;2023-03-01T13:46:55;4.70;99.90
20370;DHT22;10344;47.592;9.600;2023-03-01T13:49:42;4.70;99.90
20370;DHT22;10344;47.592;9.600;2023-03-01T13:57:53;4.80;99.90
20370;DHT22;10344;47.592;9.600;2023-03-01T14:03:09;4.80;99.90
20370;DHT22;10344;47.592;9.600;2023-03-01T14:05:41;4.90;99.90
20370;DHT22;10344;47.592;9.600;2023-03-01T14:08:21;4.80;99.90
20370;DHT22;10344;47.592;9.600;2023-03-01T14:19:43;4.90;99.90
20370;DHT22;10344;47.592;9.600;2023-03-01T14:22:23;5.00;99.90
20370;DHT22;10344;47.592;9.600;2023-03-01T14:24:59;5.10;99.90
20370;DHT22;10344;47.592;9.600;2023-03-01T14:27:40;5.10;99.90
20370;DHT22;10344;47.592;9.600;2023-03-01T14:30:31;5.00;99.90
20370;DHT22;10344;47.592;9.600;2023-03-01T14:33:04;5.10;99.90
20370;DHT22;10344;47.592;9.600;2023-03-01T14:35:34;5.20;99.90
20370;DHT22;10344;47.592;9.600;2023-03-01T14:38:05;5.20;99.90
20370;DHT22;10344;47.592;9.600;2023-03-01T14:40:34;5.20;99.90
20370;DHT22;10344;47.592;9.600;2023-03-01T14:43:11;5.20;99.90
20370;DHT22;10344;47.592;9.600;2023-03-01T14:45:50;5.20;99.90
20370;DHT22;10344;47.592;9.600;2023-03-01T14:48:19;5.30;99.90
20370;DHT22;10344;47.592;9.600;2023-03-01T14:50:48;5.20;99.90
20370;DHT22;10344;47.592;9.600;2023-03-01T14:53:28;5.20;99.90
20370;DHT22;10344;47.592;9.600;2023-03-01T14:56:01;5.00;99.90
20370;DHT22;10344;47.592;9.600;2023-03-01T14:58:32;4.90;99.90
20370;DHT22;10344;47.592;9.600;2023-03-01T15:01:02;4.80;99.90
20370;DHT22;10344;47.592;9.600;2023-03-01T15:03:36;4.80;99.90
20370;DHT22;10344;47.592;9.600;2023-03-01T15:06:06;4.70;99.90
20370;DHT22;10344;47.592;9.600;2023-03-01T15:08:32;4.70;99.90
20370;DHT22;10344;47.592;9.600;2023-03-01T15:11:01;4.80;99.90
20370;DHT22;10344;47.592;9.600;2023-03-01T15:13:32;4.90;99.90
20370;DHT22;10344;47.592;9.600;2023-03-01T15:16:10;4.90;99.90
20370;DHT22;10344;47.592;9.600;2023-03-01T15:19:00;4.90;99.90
20370;DHT22;10344;47.592;9.600;2023-03-01T15:21:30;4.80;99.90
20370;DHT22;10344;47.592;9.600;2023-03-01T15:26:57;4.60;99.90
20370;DHT22;10344;47.592;9.600;2023-03-01T15:29:31;4.60;99.90
20370;DHT22;10344;47.592;9.600;2023-03-01T15:32:05;4.70;99.90
20370;DHT22;10344;47.592;9.600;2023-03-01T15:34:36;4.70;99.90
20370;DHT22;10344;47.592;9.600;2023-03-01T15:37:46;4.60;99.90
20370;DHT22;10344;47.592;9.600;2023-03-01T15:40:27;4.50;99.90
20370;DHT22;10344;47.592;9.600;2023-03-01T15:43:01;4.40;99.90
20370;DHT22;10344;47.592;9.600;2023-03-01T15:45:32;4.40;99.90
20370;DHT22;10344;47.592;9.600;2023-03-01T15:48:15;4.40;99.90
20370;DHT22;10344;47.592;9.600;2023-03-01T15:50:44;4.40;99.90
20370;DHT22;10344;47.592;9.600;2023-03-01T15:53:28;4.40;99.90
20370;DHT22;10344;47.592;9.600;2023-03-01T15:56:14;4.30;99.90
20370;DHT22;10344;47.592;9.600;2023-03-01T15:59:02;4.30;99.90
20370;DHT22;10344;47.592;9.600;2023-03-01T16:01:32;4.20;99.90
20370;DHT22;10344;47.592;9.600;2023-03-01T16:04:19;4.30;99.90
20370;DHT22;10344;47.592;9.600;2023-03-01T16:07:01;4.30;99.90
20370;DHT22;10344;47.592;9.600;2023-03-01T16:09:38;4.20;99.90
20370;DHT22;10344;47.592;9.600;2023-03-01T16:12:08;4.20;99.90
20370;DHT22;10344;47.592;9.600;2023-03-01T16:15:01;4.20;99.90
20370;DHT22;10344;47.592;9.600;2023-03-01T16:18:02;4.00;99.90
20370;DHT22;10344;47.592;9.600;2023-03-01T16:20:31;4.00;99.90
20370;DHT22;10344;47.592;9.600;2023-03-01T16:23:18;4.00;99.90
20370;DHT22;10344;47.592;9.600;2023-03-01T16:26:10;4.00;99.90
20370;DHT22;10344;47.592;9.600;2023-03-01T16:28:44;3.90;99.90
20370;DHT22;10344;47.592;9.600;2023-03-01T16:31:17;3.80;99.90
20370;DHT22;10344;47.592;9.600;2023-03-01T16:33:49;3.80;99.90
20370;DHT22;10344;47.592;9.600;2023-03-01T16:36:43;3.90;99.90
20370;DHT22;10344;47.592;9.600;2023-03-01T16:39:20;3.90;99.90
20370;DHT22;10344;47.592;9.600;2023-03-01T16:41:57;3.90;99.90
20370;DHT22;10344;47.592;9.600;2023-03-01T16:45:10;3.80;99.90
20370;DHT22;10344;47.592;9.600;2023-03-01T16:47:42;3.80;99.90
20370;DHT22;10344;47.592;9.600;2023-03-01T16:50:19;3.80;99.90
20370;DHT22;10344;47.592;9.600;2023-03-01T16:53:01;3.80;99.90
20370;DHT22;10344;47.592;9.600;2023-03-01T16:56:10;3.80;99.90
20370;DHT22;10344;47.592;9.600;2023-03-01T16:59:09;3.70;99.90
20370;DHT22;10344;47.592;9.600;2023-03-01T17:01:50;3.60;99.90
20370;DHT22;10344;47.592;9.600;2023-03-01T17:04:22;3.60;99.90
20370;DHT22;10344;47.592;9.600;2023-03-01T17:07:25;3.60;99.90
20370;DHT22;10344;47.592;9.600;2023-03-01T17:10:00;3.60;99.90
20370;DHT22;10344;47.592;9.600;2023-03-01T17:12:31;3.60;99.90
20370;DHT22;10344;47.592;9.600;2023-03-01T17:15:20;3.50;99.90
20370;DHT22;10344;47.592;9.600;2023-03-01T17:18:03;3.60;99.90
20370;DHT22;10344;47.592;9.600;2023-03-01T17:20:36;3.60;99.90
20370;DHT22;10344;47.592;9.600;2023-03-01T17:23:42;3.60;99.90
20370;DHT22;10344;47.592;9.600;2023-03-01T17:26:18;3.60;99.90
20370;DHT22;10344;47.592;9.600;2023-03-01T17:28:47;3.60;99.90
20370;DHT22;10344;47.592;9.600;2023-03-01T17:31:31;3.50;99.90
20370;DHT22;10344;47.592;9.600;2023-03-01T17:34:00;3.50;99.90
20370;DHT22;10344;47.592;9.600;2023-03-01T17:36:43;3.50;99.90
20370;DHT22;10344;47.592;9.600;2023-03-01T17:39:16;3.50;99.90
20370;DHT22;10344;47.592;9.600;2023-03-01T17:41:55;3.50;99.90
20370;DHT22;10344;47.592;9.600;2023-03-01T17:44:58;3.50;99.90
20370;DHT22;10344;47.592;9.600;2023-03-01T17:47:44;3.50;99.90
20370;DHT22;10344;47.592;9.600;2023-03-01T17:50:19;3.60;99.90
20370;DHT22;10344;47.592;9.600;2023-03-01T17:53:12;3.60;99.90
20370;DHT22;10344;47.592;9.600;2023-03-01T17:55:43;3.60;99.90
20370;DHT22;10344;47.592;9.600;2023-03-01T17:58:31;3.50;99.90
20370;DHT22;10344;47.592;9.600;2023-03-01T18:01:17;3.50;99.90
20370;DHT22;10344;47.592;9.600;2023-03-01T18:03:49;3.50;99.90
20370;DHT22;10344;47.592;9.600;2023-03-01T18:07:04;3.50;99.90
20370;DHT22;10344;47.592;9.600;2023-03-01T18:09:40;3.60;99.90
20370;DHT22;10344;47.592;9.600;2023-03-01T18:12:10;3.70;99.90
20370;DHT22;10344;47.592;9.600;2023-03-01T18:14:40;3.60;99.90
20370;DHT22;10344;47.592;9.600;2023-03-01T18:17:33;3.60;99.90
20370;DHT22;10344;47.592;9.600;2023-03-01T18:20:09;3.60;99.90
20370;DHT22;10344;47.592;9.600;2023-03-01T18:23:06;3.70;99.90
20370;DHT22;10344;47.592;9.600;2023-03-01T18:25:41;3.80;99.90
20370;DHT22;10344;47.592;9.600;2023-03-01T18:31:52;3.70;99.90
20370;DHT22;10344;47.592;9.600;2023-03-01T18:34:33;3.70;99.90
20370;DHT22;10344;47.592;9.600;2023-03-01T18:37:01;3.70;99.90
20370;DHT22;10344;47.592;9.600;2023-03-01T18:39:32;3.60;99.90
20370;DHT22;10344;47.592;9.600;2023-03-01T18:42:24;3.60;99.90
20370;DHT22;10344;47.592;9.600;2023-03-01T18:45:29;3.60;99.90
20370;DHT22;10344;47.592;9.600;2023-03-01T18:48:36;3.60;99.90
20370;DHT22;10344;47.592;9.600;2023-03-01T18:52:14;3.60;99.90
20370;DHT22;10344;47.592;9.600;2023-03-01T18:55:07;3.60;99.90
20370;DHT22;10344;47.592;9.600;2023-03-01T18:58:01;3.60;99.90
20370;DHT22;10344;47.592;9.600;2023-03-01T19:00:35;3.60;99.90
20370;DHT22;10344;47.592;9.600;2023-03-01T19:03:02;3.50;99.90
20370;DHT22;10344;47.592;9.600;2023-03-01T19:05:35;3.60;99.90
20370;DHT22;10344;47.592;9.600;2023-03-01T19:08:52;3.50;99.90
20370;DHT22;10344;47.592;9.600;2023-03-01T19:11:51;3.50;99.90
20370;DHT22;10344;47.592;9.600;2023-03-01T19:14:29;3.50;99.90
20370;DHT22;10344;47.592;9.600;2023-03-01T19:17:20;3.50;99.90
20370;DHT22;10344;47.592;9.600;2023-03-01T19:20:05;3.50;99.90
20370;DHT22;10344;47.592;9.600;2023-03-01T19:22:37;3.50;99.90
20370;DHT22;10344;47.592;9.600;2023-03-01T19:25:07;3.50;99.90
20370;DHT22;10344;47.592;9.600;2023-03-01T19:27:59;3.50;99.90
20370;DHT22;10344;47.592;9.600;2023-03-01T19:30:27;3.70;99.90
20370;DHT22;10344;47.592;9.600;2023-03-01T19:32:58;3.60;99.90
20370;DHT22;10344;47.592;9.600;2023-03-01T19:35:51;3.50;99.90
20370;DHT22;10344;47.592;9.600;2023-03-01T19:38:25;3.60;99.90
20370;DHT22;10344;47.592;9.600;2023-03-01T19:40:54;3.70;99.90
20370;DHT22;10344;47.592;9.600;2023-03-01T19:43:55;3.70;99.90
20370;DHT22;10344;47.592;9.600;2023-03-01T19:46:50;3.60;99.90
20370;DHT22;10344;47.592;9.600;2023-03-01T19:49:28;3.60;99.90
20370;DHT22;10344;47.592;9.600;2023-03-01T19:52:08;3.60;99.90
20370;DHT22;10344;47.592;9.600;2023-03-01T19:54:56;3.70;99.90
20370;DHT22;10344;47.592;9.600;2023-03-01T19:57:33;3.60;99.90
20370;DHT22;10344;47.592;9.600;2023-03-01T20:00:22;3.50;99.90
20370;DHT22;10344;47.592;9.600;2023-03-01T20:05:48;3.30;99.90
20370;DHT22;10344;47.592;9.600;2023-03-01T20:27:20;3.40;99.90
20370;DHT22;10344;47.592;9.600;2023-03-01T20:33:38;3.30;99.90
20370;DHT22;10344;47.592;9.600;2023-03-01T20:37:37;3.40;99.90
20370;DHT22;10344;47.592;9.600;2023-03-01T20:40:43;3.30;99.90
20370;DHT22;10344;47.592;9.600;2023-03-01T20:43:30;3.30;99.90
20370;DHT22;10344;47.592;9.600;2023-03-01T20:45:56;3.30;99.90
20370;DHT22;10344;47.592;9.600;2023-03-01T20:49:11;3.30;99.90
20370;DHT22;10344;47.592;9.600;2023-03-01T20:52:21;3.30;99.90
20370;DHT22;10344;47.592;9.600;2023-03-01T21:02:20;3.40;99.90
20370;DHT22;10344;47.592;9.600;2023-03-01T21:05:44;3.50;99.90
20370;DHT22;10344;47.592;9.600;2023-03-01T21:19:45;3.40;99.90
20370;DHT22;10344;47.592;9.600;2023-03-01T21:33:26;3.20;99.90
20370;DHT22;10344;47.592;9.600;2023-03-01T21:36:20;3.20;99.90
20370;DHT22;10344;47.592;9.600;2023-03-01T21:38:51;3.20;99.90
20370;DHT22;10344;47.592;9.600;2023-03-01T22:22:49;3.20;99.90
20370;DHT22;10344;47.592;9.600;2023-03-01T22:38:05;3.20;99.90
20370;DHT22;10344;47.592;9.600;2023-03-01T22:50:12;3.10;99.90
20370;DHT22;10344;47.592;9.600;2023-03-01T22:52:38;3.10;99.90
20370;DHT22;10344;47.592;9.600;2023-03-01T22:55:04;3.20;99.90
20370;DHT22;10344;47.592;9.600;2023-03-01T22:57:30;3.10;99.90
20370;DHT22;10344;47.592;9.600;2023-03-01T22:59:57;3.20;99.90
20370;DHT22;10344;47.592;9.600;2023-03-01T23:05:26;3.20;99.90
20370;DHT22;10344;47.592;9.600;2023-03-01T23:34:05;3.20;99.90
20370;DHT22;10344;47.592;9.600;2023-03-01T23:37:33;3.30;99.90
20370;DHT22;10344;47.592;9.600;2023-03-01T23:56:02;3.20;99.90
